Time;durP1;ratioP1;P1;durP2;ratioP2;P2;SDS_P1;SDS_P2;PMS_P1;PMS_P2;Temp;Humidity;BMP_temperature;BMP_pressure;BME280_temperature;BME280_humidity;BME280_pressure;Samples;Min_cycle;Max_cycle;Signal;HPM_P1;HPM_P2
2021/12/20 00:02:08;;;;;;;29.88;5.95;;;;;;;;;;5033125;28;20198;-59
2021/12/20 00:04:35;;;;;;;25.60;7.30;;;;;;;;;;5033442;28;20203;-58
2021/12/20 00:07:03;;;;;;;28.08;6.60;;;;;;;;;;5033407;28;20203;-58
2021/12/20 00:09:31;;;;;;;21.48;6.00;;;;;;;;;;5033317;28;20222;-59
2021/12/20 00:11:59;;;;;;;18.88;6.70;;;;;;;;;;5033889;28;20264;-59
2021/12/20 00:14:26;;;;;;;25.45;5.55;;;;;;;;;;5033625;28;20719;-58
2021/12/20 00:16:53;;;;;;;31.13;7.22;;;;;;;;;;5033544;28;20206;-58
2021/12/20 00:19:21;;;;;;;22.23;6.28;;;;;;;;;;5033383;28;20222;-56
2021/12/20 00:21:48;;;;;;;27.83;6.47;;;;;;;;;;5033255;28;20206;-58
2021/12/20 00:24:17;;;;;;;25.35;7.30;;;;;;;;;;5034600;28;20206;-59
2021/12/20 00:26:45;;;;;;;32.40;6.43;;;;;;;;;;5037169;28;20221;-59
2021/12/20 00:29:13;;;;;;;21.08;5.70;;;;;;;;;;5037339;28;20597;-58
2021/12/20 00:31:40;;;;;;;39.65;6.20;;;;;;;;;;5037304;28;20206;-59
2021/12/20 00:34:07;;;;;;;26.65;5.80;;;;;;;;;;5036802;28;20218;-58
2021/12/20 00:36:35;;;;;;;21.33;6.47;;;;;;;;;;5036807;28;20213;-59
2021/12/20 00:41:48;;;;;;;23.23;6.13;;;;;;;;;;5036983;28;20242;-58
2021/12/20 00:44:15;;;;;;;22.55;7.10;;;;;;;;;;5037073;28;20197;-59
2021/12/20 00:46:42;;;;;;;19.75;6.80;;;;;;;;;;5037030;28;20227;-59
2021/12/20 00:49:10;;;;;;;27.85;7.70;;;;;;;;;;5036742;28;20234;-59
2021/12/20 00:51:37;;;;;;;29.95;6.70;;;;;;;;;;5037604;28;20685;-58
2021/12/20 00:54:04;;;;;;;27.00;6.60;;;;;;;;;;5036763;28;20222;-59
2021/12/20 00:56:32;;;;;;;19.05;5.10;;;;;;;;;;5039012;28;20705;-59
2021/12/20 00:59:00;;;;;;;40.58;8.40;;;;;;;;;;5043646;28;20226;-59
2021/12/20 01:01:28;;;;;;;26.48;5.95;;;;;;;;;;5040417;28;20206;-58
2021/12/20 01:03:55;;;;;;;22.75;6.65;;;;;;;;;;5036544;28;20198;-58
2021/12/20 01:06:22;;;;;;;28.92;6.82;;;;;;;;;;5036583;28;20206;-59
2021/12/20 01:08:51;;;;;;;21.65;6.10;;;;;;;;;;5036804;28;20237;-58
2021/12/20 01:11:22;;;;;;;28.42;6.53;;;;;;;;;;5036706;28;20210;-59
2021/12/20 01:13:50;;;;;;;31.15;6.82;;;;;;;;;;5036958;28;20297;-59
2021/12/20 01:16:28;;;;;;;33.72;6.65;;;;;;;;;;5036496;28;20198;-59
2021/12/20 01:18:56;;;;;;;25.65;6.22;;;;;;;;;;5037087;28;20222;-59
2021/12/20 01:21:23;;;;;;;27.13;6.68;;;;;;;;;;5036216;28;20206;-59
2021/12/20 01:23:51;;;;;;;23.77;5.75;;;;;;;;;;5037408;28;20554;-59
2021/12/20 01:26:18;;;;;;;25.17;5.90;;;;;;;;;;5036304;28;20206;-58
2021/12/20 01:28:45;;;;;;;31.52;6.82;;;;;;;;;;5036255;28;20733;-59
2021/12/20 01:31:12;;;;;;;28.40;6.72;;;;;;;;;;5036361;28;20217;-59
2021/12/20 01:33:41;;;;;;;28.85;6.93;;;;;;;;;;5036259;28;20214;-59
2021/12/20 01:36:08;;;;;;;27.73;6.65;;;;;;;;;;5035269;28;20293;-59
2021/12/20 01:38:36;;;;;;;20.75;5.47;;;;;;;;;;5036140;28;20202;-57
2021/12/20 01:41:03;;;;;;;32.47;6.57;;;;;;;;;;5035892;28;20202;-58
2021/12/20 01:43:30;;;;;;;29.42;6.82;;;;;;;;;;5036075;28;20195;-59
2021/12/20 01:45:58;;;;;;;30.77;7.60;;;;;;;;;;5036176;28;20231;-59
2021/12/20 01:48:25;;;;;;;25.23;6.85;;;;;;;;;;5035602;28;20210;-58
2021/12/20 01:53:40;;;;;;;29.17;7.70;;;;;;;;;;5028614;28;20305;-58
2021/12/20 01:56:07;;;;;;;22.85;6.70;;;;;;;;;;5035384;28;20206;-59
2021/12/20 01:58:35;;;;;;;27.52;6.80;;;;;;;;;;5035559;28;20207;-59
2021/12/20 02:01:22;;;;;;;22.13;6.53;;;;;;;;;;5035589;28;20206;-58
2021/12/20 02:03:56;;;;;;;24.33;6.93;;;;;;;;;;5035620;28;20194;-59
2021/12/20 02:06:30;;;;;;;31.25;7.93;;;;;;;;;;5035513;28;20193;-57
2021/12/20 02:08:57;;;;;;;31.20;8.80;;;;;;;;;;5035157;28;20225;-58
2021/12/20 02:11:25;;;;;;;30.65;8.07;;;;;;;;;;5035519;28;20600;-59
2021/12/20 02:13:53;;;;;;;40.97;8.98;;;;;;;;;;5036787;28;20218;-58
2021/12/20 02:16:20;;;;;;;28.90;7.90;;;;;;;;;;5036749;28;20206;-59
2021/12/20 02:18:48;;;;;;;19.88;7.78;;;;;;;;;;5036653;28;20226;-59
2021/12/20 02:21:17;;;;;;;30.83;8.95;;;;;;;;;;5036802;28;20202;-59
2021/12/20 02:23:44;;;;;;;27.60;7.85;;;;;;;;;;5037132;28;20670;-58
2021/12/20 02:26:14;;;;;;;25.45;8.15;;;;;;;;;;5037111;28;20221;-57
2021/12/20 02:28:45;;;;;;;31.00;6.60;;;;;;;;;;5037569;28;20222;-59
2021/12/20 02:37:00;;;;;;;39.28;8.10;;;;;;;;;;5013275;28;20205;-58
2021/12/20 02:39:27;;;;;;;28.98;6.45;;;;;;;;;;5036882;28;20272;-58
2021/12/20 02:41:55;;;;;;;33.45;7.28;;;;;;;;;;5036771;28;20206;-57
2021/12/20 02:44:24;;;;;;;33.58;8.10;;;;;;;;;;5036666;28;20202;-58
2021/12/20 02:47:04;;;;;;;25.35;7.10;;;;;;;;;;5037984;28;20217;-59
2021/12/20 02:49:32;;;;;;;24.05;6.72;;;;;;;;;;5036365;28;20379;-59
2021/12/20 02:52:03;;;;;;;22.52;7.28;;;;;;;;;;5035765;28;20214;-58
2021/12/20 02:54:30;;;;;;;43.90;8.10;;;;;;;;;;5036562;28;20210;-58
2021/12/20 02:56:57;;;;;;;36.50;7.80;;;;;;;;;;5036101;28;20199;-59
2021/12/20 02:59:25;;;;;;;27.52;7.20;;;;;;;;;;5036390;28;20230;-58
2021/12/20 03:01:53;;;;;;;27.98;7.60;;;;;;;;;;5036573;28;20210;-59
2021/12/20 03:04:21;;;;;;;34.85;8.27;;;;;;;;;;5035881;28;20198;-59
2021/12/20 03:06:49;;;;;;;33.03;8.38;;;;;;;;;;5035671;28;20213;-59
2021/12/20 03:09:21;;;;;;;19.73;7.97;;;;;;;;;;5038348;28;20588;-59
2021/12/20 03:11:51;;;;;;;50.50;8.43;;;;;;;;;;5038514;28;20635;-59
2021/12/20 03:14:25;;;;;;;28.50;7.60;;;;;;;;;;5035999;28;20702;-59
2021/12/20 03:16:53;;;;;;;24.95;7.72;;;;;;;;;;5036116;28;20186;-59
2021/12/20 03:19:20;;;;;;;27.77;8.07;;;;;;;;;;5035229;28;20231;-58
2021/12/20 03:21:47;;;;;;;29.45;8.20;;;;;;;;;;5034981;28;20289;-58
2021/12/20 03:24:15;;;;;;;26.05;7.72;;;;;;;;;;5034897;28;20276;-58
2021/12/20 03:26:43;;;;;;;26.77;8.65;;;;;;;;;;5034396;28;20219;-58
2021/12/20 03:29:11;;;;;;;26.20;7.68;;;;;;;;;;5034283;28;20711;-59
2021/12/20 03:31:38;;;;;;;25.92;7.13;;;;;;;;;;5034922;28;20210;-58
2021/12/20 03:34:06;;;;;;;24.23;8.32;;;;;;;;;;5034699;28;20233;-57
2021/12/20 03:36:34;;;;;;;29.92;7.82;;;;;;;;;;5034235;28;20253;-58
2021/12/20 03:39:01;;;;;;;28.05;9.20;;;;;;;;;;5033689;28;20596;-57
2021/12/20 03:41:29;;;;;;;21.92;8.15;;;;;;;;;;5033660;28;20210;-58
2021/12/20 03:43:57;;;;;;;21.77;7.28;;;;;;;;;;5033823;28;20197;-58
2021/12/20 03:46:26;;;;;;;26.15;7.57;;;;;;;;;;5033997;28;20202;-59
2021/12/20 03:48:53;;;;;;;24.88;7.93;;;;;;;;;;5034903;28;20237;-58
2021/12/20 03:51:21;;;;;;;20.70;7.80;;;;;;;;;;5036528;28;20206;-59
2021/12/20 03:53:48;;;;;;;19.58;8.80;;;;;;;;;;5036312;28;20202;-59
2021/12/20 03:56:16;;;;;;;27.63;6.90;;;;;;;;;;5034446;28;20209;-58
2021/12/20 03:58:43;;;;;;;20.52;6.90;;;;;;;;;;5033244;28;20225;-57
2021/12/20 04:01:13;;;;;;;26.08;7.47;;;;;;;;;;5033455;28;20206;-58
2021/12/20 04:03:40;;;;;;;23.45;7.28;;;;;;;;;;5035931;28;20619;-59
2021/12/20 04:09:05;;;;;;;20.23;7.55;;;;;;;;;;5092062;27;20621;-58
2021/12/20 04:11:33;;;;;;;15.60;6.88;;;;;;;;;;5091284;28;20204;-59
2021/12/20 04:14:01;;;;;;;18.88;6.80;;;;;;;;;;5091082;28;20203;-58
2021/12/20 04:16:29;;;;;;;18.17;6.30;;;;;;;;;;5091683;28;20204;-59
2021/12/20 04:18:56;;;;;;;18.27;6.40;;;;;;;;;;5091485;28;20696;-58
2021/12/20 04:21:23;;;;;;;26.30;7.50;;;;;;;;;;5107754;22;20217;-54
2021/12/20 04:23:51;;;;;;;19.10;7.47;;;;;;;;;;5051650;28;20557;-54
2021/12/20 04:26:19;;;;;;;16.02;6.90;;;1.00;99.90;;;;;;5051561;28;20201;-53
2021/12/20 04:28:46;;;;;;;15.75;6.85;;;0.70;99.90;;;;;;5051274;28;20269;-53
2021/12/20 04:31:13;;;;;;;18.95;6.90;;;0.70;99.90;;;;;;5051524;28;20690;-54
2021/12/20 04:33:40;;;;;;;22.13;7.32;;;0.60;99.90;;;;;;5051643;28;20210;-53
2021/12/20 04:36:08;;;;;;;11.10;6.80;;;0.60;99.90;;;;;;5051255;28;20202;-53
2021/12/20 04:38:35;;;;;;;19.27;7.80;;;0.60;99.90;;;;;;5051859;28;20252;-54
2021/12/20 04:41:02;;;;;;;18.20;6.93;;;0.60;99.90;;;;;;5051310;28;20576;-52
2021/12/20 04:43:31;;;;;;;30.20;8.57;;;0.60;99.90;;;;;;5051576;28;20206;-55
2021/12/20 04:45:58;;;;;;;23.42;8.55;;;0.60;99.90;;;;;;5051436;28;20570;-55
2021/12/20 04:48:25;;;;;;;20.00;9.15;;;0.60;99.90;;;;;;5049939;28;20244;-55
2021/12/20 04:50:52;;;;;;;32.40;8.57;;;0.60;99.90;;;;;;5049419;28;20210;-54
2021/12/20 04:53:19;;;;;;;22.33;7.53;;;0.60;99.90;;;;;;5049301;28;20218;-55
2021/12/20 04:55:47;;;;;;;19.88;8.40;;;0.60;99.90;;;;;;5050019;28;20662;-54
2021/12/20 04:58:14;;;;;;;16.40;8.27;;;0.60;99.90;;;;;;5049549;28;20194;-54
2021/12/20 05:00:44;;;;;;;16.85;8.10;;;0.50;99.90;;;;;;5049245;28;20686;-54
2021/12/20 05:03:11;;;;;;;16.77;8.52;;;0.50;99.90;;;;;;5049293;28;20257;-54
2021/12/20 05:05:39;;;;;;;23.33;7.90;;;0.40;99.90;;;;;;5049528;28;20574;-54
2021/12/20 05:08:06;;;;;;;13.95;7.68;;;0.40;99.90;;;;;;5049394;28;20218;-55
2021/12/20 05:10:34;;;;;;;15.13;8.13;;;0.30;99.90;;;;;;5049975;28;20612;-54
2021/12/20 05:13:03;;;;;;;24.90;7.70;;;0.30;99.90;;;;;;5049206;28;20316;-54
2021/12/20 05:15:31;;;;;;;16.95;7.90;;;0.30;99.90;;;;;;5048919;28;20677;-54
2021/12/20 05:18:00;;;;;;;17.70;7.70;;;0.30;99.90;;;;;;5049001;28;20700;-52
2021/12/20 05:20:28;;;;;;;19.05;8.98;;;0.20;99.90;;;;;;5035509;28;20213;-54
2021/12/20 05:22:56;;;;;;;18.73;8.98;;;0.20;99.90;;;;;;5035609;28;20632;-54
2021/12/20 05:25:23;;;;;;;22.45;9.50;;;0.20;99.90;;;;;;5035529;28;20203;-54
2021/12/20 05:27:51;;;;;;;19.38;8.13;;;0.20;99.90;;;;;;5035490;28;20218;-54
2021/12/20 05:30:19;;;;;;;23.55;8.55;;;0.20;99.90;;;;;;5035714;28;20213;-54
2021/12/20 05:32:47;;;;;;;11.48;7.55;;;0.20;99.90;;;;;;5035601;28;20588;-54
2021/12/20 05:35:19;;;;;;;19.17;7.97;;;0.20;99.90;;;;;;5035879;28;20272;-54
2021/12/20 05:37:46;;;;;;;20.15;7.15;;;0.20;99.90;;;;;;5035579;28;20273;-54
2021/12/20 05:40:14;;;;;;;18.35;7.68;;;0.20;99.90;;;;;;5035504;28;20210;-51
2021/12/20 05:42:42;;;;;;;21.25;8.00;;;0.10;99.90;;;;;;5035645;28;20732;-52
2021/12/20 05:45:11;;;;;;;14.18;7.75;;;0.20;99.90;;;;;;5035491;28;20701;-53
2021/12/20 05:47:38;;;;;;;16.13;6.43;;;0.10;99.90;;;;;;5035318;28;20214;-53
2021/12/20 05:50:07;;;;;;;17.58;8.13;;;0.10;99.90;;;;;;5035714;28;20577;-53
2021/12/20 05:52:36;;;;;;;16.30;7.60;;;0.10;99.90;;;;;;5035474;28;20233;-55
2021/12/20 05:55:03;;;;;;;21.98;8.82;;;0.10;99.90;;;;;;5036841;28;20218;-53
2021/12/20 05:57:32;;;;;;;18.40;9.07;;;0.10;99.90;;;;;;5035345;28;20209;-53
2021/12/20 05:59:59;;;;;;;14.15;7.05;;;0.20;99.90;;;;;;5035354;28;20202;-53
2021/12/20 06:02:26;;;;;;;18.92;8.02;;;0.10;99.90;;;;;;5035209;28;20230;-53
2021/12/20 06:04:53;;;;;;;17.77;6.55;;;0.10;99.90;;;;;;5034937;28;20198;-53
2021/12/20 06:07:20;;;;;;;18.80;7.28;;;0.10;99.90;;;;;;5034872;28;20674;-53
2021/12/20 06:09:49;;;;;;;17.27;7.15;;;0.20;99.90;;;;;;5034938;28;20206;-53
2021/12/20 06:12:16;;;;;;;11.98;6.38;;;0.10;99.90;;;;;;5034675;28;20218;-53
2021/12/20 06:14:44;;;;;;;21.10;7.68;;;0.20;99.90;;;;;;5036001;28;20210;-53
2021/12/20 06:17:11;;;;;;;17.20;7.63;;;0.20;99.90;;;;;;5034601;28;20210;-53
2021/12/20 06:19:39;;;;;;;32.22;8.15;;;0.20;99.90;;;;;;5035119;28;20224;-53
2021/12/20 06:22:10;;;;;;;16.25;7.30;;;0.10;99.90;;;;;;5034594;28;20636;-53
2021/12/20 06:24:38;;;;;;;24.33;7.22;;;0.10;99.90;;;;;;5035328;28;20607;-53
2021/12/20 06:27:06;;;;;;;18.20;6.43;;;0.10;99.90;;;;;;5035008;28;20249;-53
2021/12/20 06:29:33;;;;;;;13.85;6.38;;;0.10;99.90;;;;;;5034754;28;20219;-53
2021/12/20 06:32:01;;;;;;;12.02;6.85;;;0.10;99.90;;;;;;5033732;28;20227;-53
2021/12/20 06:34:28;;;;;;;16.05;6.18;;;0.10;99.90;;;;;;5034656;28;20208;-53
2021/12/20 06:36:55;;;;;;;12.32;5.90;;;0.10;99.90;;;;;;5034666;28;20206;-54
2021/12/20 06:39:23;;;;;;;15.13;5.88;;;0.10;99.90;;;;;;5034811;28;20202;-54
2021/12/20 06:41:50;;;;;;;11.00;5.22;;;0.10;99.90;;;;;;5034488;28;20261;-54
2021/12/20 06:44:20;;;;;;;18.48;6.60;;;0.10;99.90;;;;;;5034347;28;20214;-55
2021/12/20 06:46:47;;;;;;;15.57;6.85;;;0.10;99.90;;;;;;5034227;28;20202;-54
2021/12/20 06:49:14;;;;;;;12.82;5.95;;;0.10;99.90;;;;;;5034073;28;20219;-54
2021/12/20 06:51:43;;;;;;;8.15;6.15;;;0.10;99.90;;;;;;5034148;28;20222;-54
2021/12/20 06:54:11;;;;;;;13.70;7.00;;;0.10;99.90;;;;;;5034251;28;20211;-54
2021/12/20 06:56:38;;;;;;;12.55;6.47;;;0.10;99.90;;;;;;5034065;28;20202;-53
2021/12/20 06:59:05;;;;;;;10.95;5.80;;;0.10;99.90;;;;;;5033986;28;20277;-54
2021/12/20 07:01:34;;;;;;;14.80;5.80;;;0.10;99.90;;;;;;5034056;28;20229;-54
2021/12/20 07:04:02;;;;;;;15.27;6.30;;;0.10;99.90;;;;;;5034175;28;20202;-54
2021/12/20 07:06:29;;;;;;;11.52;5.82;;;0.10;99.90;;;;;;5033812;28;20253;-54
2021/12/20 07:08:57;;;;;;;10.32;5.63;;;0.10;99.90;;;;;;5034198;28;20537;-54
2021/12/20 07:11:24;;;;;;;11.30;6.68;;;0.00;99.90;;;;;;5034108;28;20229;-54
2021/12/20 07:13:53;;;;;;;10.15;6.15;;;0.10;99.90;;;;;;5034270;28;20677;-54
2021/12/20 07:16:21;;;;;;;15.98;6.65;;;0.10;99.90;;;;;;5034801;28;20202;-54
2021/12/20 07:18:50;;;;;;;8.23;5.03;;;0.10;99.90;;;;;;5034829;28;20195;-54
2021/12/20 07:21:18;;;;;;;9.68;6.05;;;0.10;99.90;;;;;;5033437;28;20570;-53
2021/12/20 07:23:45;;;;;;;13.65;6.47;;;0.00;99.90;;;;;;5033522;28;20193;-54
2021/12/20 07:26:13;;;;;;;14.82;5.95;;;0.00;99.90;;;;;;5033950;28;20293;-54
2021/12/20 07:28:41;;;;;;;16.95;7.43;;;0.00;99.90;;;;;;5033499;28;20229;-53
2021/12/20 07:31:08;;;;;;;12.63;6.18;;;0.00;99.90;;;;;;5034221;28;20234;-53
2021/12/20 07:33:35;;;;;;;10.00;6.13;;;0.00;99.90;;;;;;5034659;28;20600;-54
2021/12/20 07:36:04;;;;;;;9.63;5.13;;;0.00;99.90;;;;;;5034227;28;20210;-54
2021/12/20 07:38:32;;;;;;;13.07;6.00;;;0.00;99.90;;;;;;5033288;28;20213;-55
2021/12/20 07:41:00;;;;;;;10.35;6.20;;;0.00;99.90;;;;;;5033493;28;20273;-54
2021/12/20 07:43:27;;;;;;;11.63;5.90;;;0.00;99.90;;;;;;5033072;28;20206;-54
2021/12/20 07:45:55;;;;;;;11.23;6.55;;;0.00;99.90;;;;;;5033227;28;20210;-54
2021/12/20 07:48:22;;;;;;;10.98;5.50;;;0.00;99.90;;;;;;5032794;28;20229;-55
2021/12/20 07:50:51;;;;;;;17.08;6.50;;;0.00;99.90;;;;;;5033592;28;20225;-54
2021/12/20 07:53:19;;;;;;;9.52;5.97;;;0.00;99.90;;;;;;5033175;28;20710;-55
2021/12/20 07:55:46;;;;;;;14.90;6.43;;;0.10;99.90;;;;;;5033344;28;20198;-56
2021/12/20 07:58:14;;;;;;;10.15;6.03;;;0.10;99.90;;;;;;5033357;28;20225;-55
2021/12/20 08:00:41;;;;;;;10.52;6.00;;;0.10;99.90;;;;;;5033662;28;20206;-55
2021/12/20 08:03:09;;;;;;;11.52;5.63;;;0.10;99.90;;;;;;5033196;28;20222;-55
2021/12/20 08:05:36;;;;;;;12.30;5.88;;;0.10;99.90;;;;;;5033561;28;20207;-54
2021/12/20 08:08:03;;;;;;;9.68;6.68;;;0.10;99.90;;;;;;5033758;28;20206;-55
2021/12/20 08:10:32;;;;;;;7.88;6.20;;;0.10;99.90;;;;;;5033537;28;20579;-55
2021/12/20 08:12:59;;;;;;;13.88;6.57;;;0.10;99.90;;;;;;5032967;28;20249;-55
2021/12/20 08:15:27;;;;;;;9.70;6.10;;;0.10;99.90;;;;;;5033187;28;20206;-55
2021/12/20 08:17:56;;;;;;;7.25;4.93;;;0.20;99.90;;;;;;5032754;28;20198;-55
2021/12/20 08:20:23;;;;;;;9.57;5.65;;;0.20;99.90;;;;;;5033353;28;20617;-55
2021/12/20 08:22:50;;;;;;;11.93;6.20;;;0.20;99.90;;;;;;5032690;28;20320;-55
2021/12/20 08:25:19;;;;;;;8.80;5.80;;;0.20;99.90;;;;;;5033094;28;20210;-55
2021/12/20 08:27:49;;;;;;;10.85;5.65;;;0.30;99.90;;;;;;5032789;28;20246;-54
2021/12/20 08:30:16;;;;;;;8.88;5.80;;;0.30;99.90;;;;;;5033244;28;20226;-54
2021/12/20 08:32:43;;;;;;;12.00;5.35;;;0.30;99.90;;;;;;5033253;28;20245;-55
2021/12/20 08:35:12;;;;;;;5.82;4.30;;;0.30;99.90;;;;;;5032565;28;20677;-55
2021/12/20 08:37:40;;;;;;;7.75;4.40;;;0.40;99.90;;;;;;5032412;28;20666;-54
2021/12/20 08:40:11;;;;;;;10.32;6.10;;;0.40;99.90;;;;;;5032839;28;20576;-54
2021/12/20 08:42:38;;;;;;;10.45;5.38;;;0.40;99.90;;;;;;5032936;28;20262;-54
2021/12/20 08:45:08;;;;;;;13.52;5.60;;;0.40;99.90;;;;;;5032555;28;20203;-54
2021/12/20 08:47:36;;;;;;;6.93;5.03;;;0.50;99.90;;;;;;5032364;28;20209;-54
2021/12/20 08:50:05;;;;;;;9.25;5.93;;;0.50;99.90;;;;;;5032276;28;20222;-54
2021/12/20 08:52:32;;;;;;;10.13;6.10;;;0.50;99.90;;;;;;5032421;28;20226;-54
2021/12/20 08:54:59;;;;;;;9.27;5.68;;;0.60;99.90;;;;;;5034688;28;20206;-54
2021/12/20 08:57:26;;;;;;;10.43;5.63;;;0.60;99.90;;;;;;5036312;28;20205;-53
2021/12/20 08:59:53;;;;;;;10.65;5.50;;;0.70;99.90;;;;;;5036425;28;20202;-54
2021/12/20 09:02:21;;;;;;;9.75;5.50;;;0.70;99.90;;;;;;5036250;28;20223;-55
2021/12/20 09:04:49;;;;;;;10.63;6.70;;;0.70;99.90;;;;;;5036078;28;20611;-55
2021/12/20 09:07:16;;;;;;;10.38;4.38;;;0.80;99.90;;;;;;5036331;28;20202;-55
2021/12/20 09:09:46;;;;;;;8.50;5.85;;;0.80;99.90;;;;;;5036291;28;20218;-55
2021/12/20 09:12:14;;;;;;;14.20;5.18;;;0.90;99.90;;;;;;5036141;28;20576;-55
2021/12/20 09:14:41;;;;;;;7.43;4.95;;;0.90;99.90;;;;;;5036322;28;20208;-56
2021/12/20 09:17:09;;;;;;;7.80;5.07;;;1.00;99.90;;;;;;5036193;28;20563;-54
2021/12/20 09:19:37;;;;;;;12.60;5.15;;;1.00;99.90;;;;;;5036076;28;20207;-54
2021/12/20 09:22:06;;;;;;;8.52;4.82;;;1.10;99.90;;;;;;5036181;28;20230;-54
2021/12/20 09:24:34;;;;;;;7.70;4.93;;;1.10;99.90;;;;;;5036333;28;20230;-54
2021/12/20 09:27:02;;;;;;;13.95;5.03;;;1.10;99.90;;;;;;5036280;28;20213;-55
2021/12/20 09:29:29;;;;;;;6.90;4.88;;;1.20;99.90;;;;;;5036068;28;20222;-56
2021/12/20 09:31:57;;;;;;;9.43;5.35;;;1.20;99.90;;;;;;5035660;28;20222;-56
2021/12/20 09:34:24;;;;;;;11.07;5.05;;;1.30;99.90;;;;;;5035406;28;20206;-54
2021/12/20 09:36:54;;;;;;;9.85;4.97;;;1.30;99.90;;;;;;5035203;28;20256;-55
2021/12/20 09:39:22;;;;;;;8.02;4.72;;;1.40;99.90;;;;;;5035752;28;20237;-55
2021/12/20 09:42:02;;;;;;;14.13;4.97;;;1.50;99.90;;;;;;5035597;28;20218;-54
2021/12/20 09:44:30;;;;;;;10.50;5.65;;;1.50;99.90;;;;;;5035833;28;20201;-55
2021/12/20 09:46:58;;;;;;;9.10;5.40;;;1.50;99.90;;;;;;5035695;28;20199;-55
2021/12/20 09:49:26;;;;;;;8.23;4.50;;;1.60;99.90;;;;;;5035220;28;20226;-56
2021/12/20 09:51:57;;;;;;;9.52;4.82;;;1.60;99.90;;;;;;5035582;28;20222;-56
2021/12/20 09:54:24;;;;;;;10.18;5.72;;;1.70;99.90;;;;;;5035038;28;20290;-54
2021/12/20 09:56:53;;;;;;;10.80;4.95;;;1.70;99.90;;;;;;5035420;28;20210;-56
2021/12/20 09:59:22;;;;;;;12.82;6.15;;;1.80;99.90;;;;;;5035385;28;20199;-55
2021/12/20 10:01:51;;;;;;;9.50;5.15;;;1.80;99.90;;;;;;5034878;28;20246;-55
2021/12/20 10:04:18;;;;;;;7.97;5.20;;;1.80;99.90;;;;;;5035080;28;20202;-54
2021/12/20 10:06:46;;;;;;;10.40;5.78;;;1.90;99.90;;;;;;5035101;28;20206;-55
2021/12/20 10:09:16;;;;;;;6.57;5.30;;;1.90;99.90;;;;;;5035220;28;20226;-55
2021/12/20 10:11:44;;;;;;;13.98;5.57;;;2.00;99.90;;;;;;5034874;28;20222;-56
2021/12/20 10:14:13;;;;;;;7.18;5.15;;;2.10;99.90;;;;;;5035133;28;20256;-56
2021/12/20 10:16:43;;;;;;;7.40;5.32;;;2.10;99.90;;;;;;5034806;28;20203;-55
2021/12/20 10:19:28;;;;;;;8.30;4.07;;;2.10;99.90;;;;;;5034720;28;20667;-55
2021/12/20 10:24:33;;;;;;;8.20;5.18;;;2.20;99.90;;;;;;5014127;28;20671;-55
2021/12/20 10:27:00;;;;;;;12.63;4.88;;;2.20;99.90;;;;;;5015319;28;20184;-56
2021/12/20 10:29:28;;;;;;;12.95;6.10;;;2.20;99.90;;;;;;5014943;28;20219;-56
2021/12/20 10:31:56;;;;;;;8.45;5.20;;;2.30;99.90;;;;;;5015940;28;20211;-55
2021/12/20 10:34:32;;;;;;;7.18;5.05;;;2.30;99.90;;;;;;5019621;28;20209;-56
2021/12/20 10:37:02;;;;;;;12.25;6.22;;;2.30;99.90;;;;;;5019396;28;20190;-56
2021/12/20 10:39:41;;;;;;;10.57;6.38;;;2.30;99.90;;;;;;5016768;28;20199;-56
2021/12/20 10:42:16;;;;;;;8.02;5.07;;;2.30;99.90;;;;;;5014885;28;20742;-57
2021/12/20 10:44:44;;;;;;;6.78;4.65;;;2.30;99.90;;;;;;5014492;28;20199;-56
2021/12/20 10:47:25;;;;;;;8.10;5.13;;;2.40;99.90;;;;;;5014843;28;20211;-57
2021/12/20 10:49:53;;;;;;;7.05;5.00;;;2.40;99.90;;;;;;5014883;28;20218;-56
2021/12/20 10:52:27;;;;;;;6.97;5.30;;;2.50;99.90;;;;;;5014707;28;20219;-54
2021/12/20 10:54:56;;;;;;;6.50;5.13;;;2.60;99.90;;;;;;5014058;28;20226;-56
2021/12/20 10:57:28;;;;;;;8.43;5.18;;;2.60;99.90;;;;;;5014300;28;20205;-56
2021/12/20 11:00:17;;;;;;;9.40;5.13;;;2.60;99.90;;;;;;5014488;28;20225;-55
2021/12/20 11:03:20;;;;;;;9.18;5.82;;;2.60;99.90;;;;;;5014308;28;20219;-56
2021/12/20 11:06:12;;;;;;;9.50;5.80;;;2.70;99.90;;;;;;5014374;28;20201;-54
2021/12/20 11:11:22;;;;;;;10.52;5.20;;;2.70;99.90;;;;;;5014101;28;20187;-57
2021/12/20 11:13:49;;;;;;;9.30;5.68;;;2.80;99.90;;;;;;5014358;28;20574;-56
2021/12/20 11:16:28;;;;;;;9.02;5.40;;;2.80;99.90;;;;;;5014177;28;20545;-56
2021/12/20 11:19:23;;;;;;;10.77;5.80;;;2.90;99.90;;;;;;5014442;28;20207;-56
2021/12/20 11:21:57;;;;;;;8.63;5.60;;;2.80;99.90;;;;;;5005824;28;20210;-55
2021/12/20 11:24:27;;;;;;;8.18;4.80;;;2.80;99.90;;;;;;5014636;28;20245;-54
2021/12/20 11:26:57;;;;;;;10.52;6.38;;;2.80;99.90;;;;;;5013881;28;20309;-56
2021/12/20 11:29:24;;;;;;;8.35;5.93;;;2.80;99.90;;;;;;5014870;28;20222;-55
2021/12/20 11:31:53;;;;;;;12.32;6.00;;;2.80;99.90;;;;;;5014486;28;20606;-56
2021/12/20 11:34:20;;;;;;;12.82;6.10;;;2.90;99.90;;;;;;5014281;28;20689;-54
2021/12/20 11:36:48;;;;;;;9.00;5.20;;;2.90;99.90;;;;;;5014360;28;20210;-57
2021/12/20 11:39:15;;;;;;;9.02;5.55;;;3.00;99.90;;;;;;5014132;28;20206;-55
2021/12/20 11:41:43;;;;;;;8.90;4.65;;;3.00;99.90;;;;;;5013786;28;20199;-55
2021/12/20 11:44:15;;;;;;;15.10;5.35;;;3.10;99.90;;;;;;5013721;28;20226;-54
2021/12/20 11:47:02;;;;;;;10.05;6.38;;;3.10;99.90;;;;;;5014635;28;20283;-56
2021/12/20 11:49:30;;;;;;;7.32;5.60;;;3.20;99.90;;;;;;5014517;28;20233;-56
2021/12/20 11:51:59;;;;;;;8.18;5.00;;;3.20;99.90;;;;;;5013549;28;20579;-57
2021/12/20 11:54:41;;;;;;;9.88;5.43;;;3.30;99.90;;;;;;5014431;28;20202;-55
2021/12/20 11:57:25;;;;;;;11.98;6.10;;;3.20;99.90;;;;;;5014036;28;20191;-56
2021/12/20 11:59:56;;;;;;;10.88;5.57;;;3.30;99.90;;;;;;5013952;28;20218;-56
2021/12/20 12:02:26;;;;;;;8.85;5.72;;;3.30;99.90;;;;;;5013670;28;20229;-56
2021/12/20 12:05:01;;;;;;;8.23;5.20;;;3.40;99.90;;;;;;5013482;28;20203;-56
2021/12/20 12:07:30;;;;;;;7.20;4.63;;;3.40;99.90;;;;;;5013480;28;20191;-55
2021/12/20 12:09:59;;;;;;;8.30;5.35;;;3.50;99.90;;;;;;5013377;28;20315;-55
2021/12/20 12:12:27;;;;;;;10.52;4.75;;;3.50;99.90;;;;;;5013375;28;20230;-54
2021/12/20 12:15:06;;;;;;;9.02;5.03;;;3.60;99.90;;;;;;5014069;28;20199;-55
2021/12/20 12:17:54;;;;;;;7.97;4.93;;;3.60;99.90;;;;;;5014664;28;20190;-56
2021/12/20 12:20:48;;;;;;;11.30;4.55;;;3.60;99.90;;;;;;5013508;28;20226;-56
2021/12/20 12:23:21;;;;;;;5.85;4.57;;;3.60;99.90;;;;;;5013780;28;20241;-57
2021/12/20 12:25:51;;;;;;;9.88;5.30;;;3.60;99.90;;;;;;5013317;28;20199;-54
2021/12/20 12:28:20;;;;;;;8.02;4.43;;;3.70;99.90;;;;;;5013826;28;20191;-56
2021/12/20 12:31:01;;;;;;;11.20;7.18;;;3.70;99.90;;;;;;5017426;28;20226;-56
2021/12/20 12:33:35;;;;;;;8.23;4.00;;;3.70;99.90;;;;;;5017401;28;20226;-55
2021/12/20 12:36:21;;;;;;;7.68;4.35;;;3.70;99.90;;;;;;5018023;28;20203;-55
2021/12/20 12:38:58;;;;;;;5.20;4.30;;;3.80;99.90;;;;;;5017042;28;20647;-53
2021/12/20 12:41:27;;;;;;;15.10;6.15;;;3.80;99.90;;;;;;5017131;28;20241;-56
2021/12/20 12:44:06;;;;;;;6.75;4.55;;;3.80;99.90;;;;;;5016516;28;20238;-55
2021/12/20 12:47:00;;;;;;;6.40;4.60;;;3.90;99.90;;;;;;5017126;28;20226;-56
2021/12/20 12:49:53;;;;;;;6.10;3.95;;;3.90;99.90;;;;;;5016133;28;20227;-55
2021/12/20 12:52:42;;;;;;;6.75;4.15;;;3.80;99.90;;;;;;5016378;28;20806;-55
2021/12/20 12:55:28;;;;;;;7.55;4.57;;;3.80;99.90;;;;;;5016674;28;20541;-55
2021/12/20 12:57:56;;;;;;;9.05;4.85;;;3.80;99.90;;;;;;5016933;28;20180;-56
2021/12/20 13:00:33;;;;;;;11.30;4.72;;;3.80;99.90;;;;;;5016435;28;20239;-55
2021/12/20 13:03:14;;;;;;;7.32;4.80;;;3.80;99.90;;;;;;5016633;28;20223;-54
2021/12/20 13:05:42;;;;;;;5.05;4.03;;;3.90;99.90;;;;;;5017413;28;20245;-56
2021/12/20 13:08:09;;;;;;;8.00;5.00;;;3.90;99.90;;;;;;5016605;28;20207;-55
2021/12/20 13:10:40;;;;;;;10.35;4.88;;;3.90;99.90;;;;;;5017061;28;20222;-55
2021/12/20 13:13:12;;;;;;;11.38;5.18;;;3.90;99.90;;;;;;5016989;28;20223;-55
2021/12/20 13:15:43;;;;;;;6.80;4.18;;;3.90;99.90;;;;;;5016886;28;20223;-56
2021/12/20 13:18:18;;;;;;;7.50;4.30;;;3.90;99.90;;;;;;5017165;28;20217;-54
2021/12/20 13:20:56;;;;;;;5.78;4.00;;;3.90;99.90;;;;;;5018357;28;20218;-55
2021/12/20 13:23:27;;;;;;;6.28;4.85;;;3.90;99.90;;;;;;5020131;28;20295;-55
2021/12/20 13:25:55;;;;;;;6.47;5.10;;;3.80;99.90;;;;;;5021943;28;20194;-54
2021/12/20 13:28:26;;;;;;;10.73;5.00;;;3.80;99.90;;;;;;5021958;28;20605;-57
2021/12/20 13:30:56;;;;;;;16.98;5.35;;;3.90;99.90;;;;;;5019363;28;20667;-55
2021/12/20 13:33:26;;;;;;;9.60;5.45;;;4.00;99.90;;;;;;5017461;28;20218;-56
2021/12/20 13:35:54;;;;;;;9.27;4.38;;;4.10;99.90;;;;;;5017013;28;20191;-57
2021/12/20 13:38:29;;;;;;;8.05;4.90;;;4.20;99.90;;;;;;5017750;28;20283;-56
2021/12/20 13:40:59;;;;;;;9.10;4.72;;;4.20;99.90;;;;;;5015814;28;20627;-54
2021/12/20 13:43:35;;;;;;;10.43;4.40;;;4.10;99.90;;;;;;5016176;28;20230;-55
2021/12/20 13:46:17;;;;;;;10.02;4.97;;;4.10;99.90;;;;;;5016813;28;20196;-55
2021/12/20 13:48:53;;;;;;;9.93;4.47;;;3.90;99.90;;;;;;5015710;28;20195;-55
2021/12/20 13:51:22;;;;;;;11.30;5.15;;;3.90;99.90;;;;;;5016081;28;20215;-56
2021/12/20 13:53:50;;;;;;;7.88;5.75;;;3.80;99.90;;;;;;5014964;28;20227;-55